Tainan Airport
RCNN : now visible

Airfield :











YOU CAN JOIN US ON...

 
LOGIN :

Register | Disclaimer

   EN    FR    IT 

 









Legend :    VFR   Marginal VFR   IFR   Intensive IFR   Very Intensive IFR
Visi :
Ceiling :
>= 8 km
>= 3000ft
5 to 8 km
1000 to 3000 ft
1500m to 5 km
500 to 1000 ft
800 to 1500m
200 to 500 ft
< 800m
< 200 ft
Symbols :   Thunderstorms  Fog  Heavy snow  Heavy precipitations  Wind > 20 kt






- Airport Elevation : 63 ft
- IATA code : TNN


RCNN - Tainan

CURRENT METAR :
  • 020200Z 01013KT 9999 FEW012 SCT100 24/17 Q1018 NOSIG RMK A3007

EXPIRED METARs :
  • 020130Z 02012KT 9999 FEW012 SCT100 23/16 Q1018 NOSIG RMK A3007
  • 020100Z 36012KT 9999 FEW012 SCT100 22/16 Q1018 NOSIG RMK A3007
  • 020030Z 36011KT 9999 FEW012 21/16 Q1018 NOSIG RMK A3007
  • 020000Z 01013KT 9999 FEW012 20/16 Q1017 NOSIG RMK A3005
  • 012330Z 36011KT 9999 FEW012 19/16 Q1017 NOSIG RMK A3004

TAF TAF RCNN
Valid from the 02 at 00:00 until the 03 at 00:00 UTC


012300Z 0200/0224 35012KT 9999 FEW012 BKN080 TX28/0205Z TN19/0222Z
BECMG 0202/0205 FEW012 SCT080
BECMG 0206/0209 FEW012 BKN080
BECMG 0210/0213 FEW012 SCT100
TEMPO 0214/0219 7000
BECMG 0220/0223 02004KT 5000 BR FEW010 BKN050
RCAA FIR / Asia



MET'MAP, your aeronautical weather chart ! - Copyright ORBIFLY December 2007 - Disclaimer

ORBIFLY MET'MAP TEAM :

Programming & Development : Alexandra Zaïnal
Original concept : Baudouin d'Aumeries
Technical & hardware support : Manuel Goepfert
Assistance : Marc-Olivier Méhu




SOURCES & CREDITS :

   NOAA       Earth
Advisory